sensor_id;sensor_type;location;lat;lon;timestamp;P1;durP1;ratioP1;P2;durP2;ratioP2
70967;SDS011;58629;48.808;8.820;2023-02-28T00:01:05;2.77;;;1.40;;
70967;SDS011;58629;48.808;8.820;2023-02-28T00:03:30;3.87;;;1.80;;
70967;SDS011;58629;48.808;8.820;2023-02-28T00:05:55;2.90;;;1.50;;
70967;SDS011;58629;48.808;8.820;2023-02-28T00:08:20;3.40;;;1.60;;
70967;SDS011;58629;48.808;8.820;2023-02-28T00:10:46;2.30;;;1.40;;
70967;SDS011;58629;48.808;8.820;2023-02-28T00:13:11;2.70;;;1.50;;
70967;SDS011;58629;48.808;8.820;2023-02-28T00:15:36;3.00;;;1.40;;
70967;SDS011;58629;48.808;8.820;2023-02-28T00:18:02;4.77;;;1.30;;
70967;SDS011;58629;48.808;8.820;2023-02-28T00:20:28;2.83;;;1.35;;
70967;SDS011;58629;48.808;8.820;2023-02-28T00:22:54;3.70;;;1.42;;
70967;SDS011;58629;48.808;8.820;2023-02-28T00:25:20;3.33;;;1.40;;
70967;SDS011;58629;48.808;8.820;2023-02-28T00:27:48;3.65;;;1.60;;
70967;SDS011;58629;48.808;8.820;2023-02-28T00:30:15;3.10;;;1.40;;
70967;SDS011;58629;48.808;8.820;2023-02-28T00:32:42;4.70;;;1.80;;
70967;SDS011;58629;48.808;8.820;2023-02-28T00:35:09;5.07;;;1.80;;
70967;SDS011;58629;48.808;8.820;2023-02-28T00:37:35;2.78;;;1.50;;
70967;SDS011;58629;48.808;8.820;2023-02-28T00:40:01;4.13;;;1.90;;
70967;SDS011;58629;48.808;8.820;2023-02-28T00:42:27;3.30;;;1.70;;
70967;SDS011;58629;48.808;8.820;2023-02-28T00:44:52;3.30;;;1.58;;
70967;SDS011;58629;48.808;8.820;2023-02-28T00:47:17;3.83;;;1.80;;
70967;SDS011;58629;48.808;8.820;2023-02-28T00:49:43;3.60;;;2.00;;
70967;SDS011;58629;48.808;8.820;2023-02-28T00:52:08;3.87;;;1.80;;
70967;SDS011;58629;48.808;8.820;2023-02-28T00:54:34;3.40;;;1.60;;
70967;SDS011;58629;48.808;8.820;2023-02-28T00:56:59;3.70;;;1.70;;
70967;SDS011;58629;48.808;8.820;2023-02-28T00:59:25;3.57;;;1.80;;
70967;SDS011;58629;48.808;8.820;2023-02-28T01:01:50;4.32;;;1.77;;
70967;SDS011;58629;48.808;8.820;2023-02-28T01:04:15;4.17;;;1.70;;
70967;SDS011;58629;48.808;8.820;2023-02-28T01:06:41;3.00;;;1.73;;
70967;SDS011;58629;48.808;8.820;2023-02-28T01:09:07;3.67;;;1.63;;
70967;SDS011;58629;48.808;8.820;2023-02-28T01:11:33;4.13;;;1.80;;
70967;SDS011;58629;48.808;8.820;2023-02-28T01:13:59;4.65;;;2.13;;
70967;SDS011;58629;48.808;8.820;2023-02-28T01:16:25;3.45;;;2.00;;
70967;SDS011;58629;48.808;8.820;2023-02-28T01:18:50;3.97;;;1.90;;
70967;SDS011;58629;48.808;8.820;2023-02-28T01:21:17;3.83;;;2.03;;
70967;SDS011;58629;48.808;8.820;2023-02-28T01:23:44;3.90;;;1.97;;
70967;SDS011;58629;48.808;8.820;2023-02-28T01:28:35;4.17;;;1.90;;
70967;SDS011;58629;48.808;8.820;2023-02-28T01:31:01;3.80;;;2.10;;
70967;SDS011;58629;48.808;8.820;2023-02-28T01:33:26;4.83;;;2.10;;
70967;SDS011;58629;48.808;8.820;2023-02-28T01:36:00;6.00;;;2.00;;
70967;SDS011;58629;48.808;8.820;2023-02-28T01:38:34;5.28;;;2.65;;
70967;SDS011;58629;48.808;8.820;2023-02-28T01:41:00;3.65;;;1.95;;
70967;SDS011;58629;48.808;8.820;2023-02-28T01:43:26;4.33;;;2.00;;
70967;SDS011;58629;48.808;8.820;2023-02-28T01:45:54;4.80;;;1.92;;
70967;SDS011;58629;48.808;8.820;2023-02-28T01:48:23;3.95;;;2.00;;
70967;SDS011;58629;48.808;8.820;2023-02-28T01:50:52;4.85;;;2.20;;
70967;SDS011;58629;48.808;8.820;2023-02-28T01:53:21;4.35;;;2.15;;
70967;SDS011;58629;48.808;8.820;2023-02-28T01:55:51;4.80;;;2.50;;
70967;SDS011;58629;48.808;8.820;2023-02-28T01:58:18;4.25;;;2.35;;
70967;SDS011;58629;48.808;8.820;2023-02-28T02:00:44;5.15;;;2.80;;
70967;SDS011;58629;48.808;8.820;2023-02-28T02:03:11;4.30;;;2.23;;
70967;SDS011;58629;48.808;8.820;2023-02-28T02:05:38;5.85;;;2.40;;
70967;SDS011;58629;48.808;8.820;2023-02-28T02:08:09;4.45;;;2.45;;
70967;SDS011;58629;48.808;8.820;2023-02-28T02:10:56;5.13;;;2.50;;
70967;SDS011;58629;48.808;8.820;2023-02-28T02:13:37;4.45;;;2.60;;
70967;SDS011;58629;48.808;8.820;2023-02-28T02:16:27;5.07;;;2.78;;
70967;SDS011;58629;48.808;8.820;2023-02-28T02:19:34;5.10;;;2.45;;
70967;SDS011;58629;48.808;8.820;2023-02-28T02:36:35;6.15;;;2.78;;
70967;SDS011;58629;48.808;8.820;2023-02-28T02:39:24;5.53;;;2.80;;
70967;SDS011;58629;48.808;8.820;2023-02-28T02:42:16;5.50;;;2.50;;
70967;SDS011;58629;48.808;8.820;2023-02-28T02:44:51;4.70;;;2.50;;
70967;SDS011;58629;48.808;8.820;2023-02-28T02:47:25;4.40;;;2.60;;
70967;SDS011;58629;48.808;8.820;2023-02-28T02:49:55;5.75;;;2.50;;
70967;SDS011;58629;48.808;8.820;2023-02-28T02:52:25;4.07;;;2.20;;
70967;SDS011;58629;48.808;8.820;2023-02-28T02:54:59;4.13;;;2.30;;
70967;SDS011;58629;48.808;8.820;2023-02-28T02:57:31;5.13;;;2.40;;
70967;SDS011;58629;48.808;8.820;2023-02-28T03:00:02;5.80;;;3.05;;
70967;SDS011;58629;48.808;8.820;2023-02-28T03:02:33;5.35;;;2.70;;
70967;SDS011;58629;48.808;8.820;2023-02-28T03:05:02;4.53;;;2.60;;
70967;SDS011;58629;48.808;8.820;2023-02-28T03:07:31;4.65;;;2.80;;
70967;SDS011;58629;48.808;8.820;2023-02-28T03:09:56;6.53;;;3.17;;
70967;SDS011;58629;48.808;8.820;2023-02-28T03:12:32;6.65;;;2.85;;
70967;SDS011;58629;48.808;8.820;2023-02-28T03:15:15;5.88;;;3.15;;
70967;SDS011;58629;48.808;8.820;2023-02-28T03:23:21;6.23;;;3.00;;
70967;SDS011;58629;48.808;8.820;2023-02-28T03:29:27;6.80;;;3.22;;
70967;SDS011;58629;48.808;8.820;2023-02-28T03:31:58;6.03;;;3.15;;
70967;SDS011;58629;48.808;8.820;2023-02-28T03:37:03;6.30;;;3.13;;
70967;SDS011;58629;48.808;8.820;2023-02-28T03:39:37;6.47;;;3.00;;
70967;SDS011;58629;48.808;8.820;2023-02-28T03:42:08;5.68;;;3.15;;
70967;SDS011;58629;48.808;8.820;2023-02-28T03:44:48;6.90;;;3.25;;
70967;SDS011;58629;48.808;8.820;2023-02-28T03:47:19;5.57;;;3.15;;
70967;SDS011;58629;48.808;8.820;2023-02-28T03:49:50;5.83;;;3.10;;
70967;SDS011;58629;48.808;8.820;2023-02-28T03:52:22;6.15;;;2.95;;
70967;SDS011;58629;48.808;8.820;2023-02-28T03:54:51;8.07;;;3.47;;
70967;SDS011;58629;48.808;8.820;2023-02-28T03:57:35;6.30;;;3.15;;
70967;SDS011;58629;48.808;8.820;2023-02-28T04:02:37;7.07;;;3.07;;
70967;SDS011;58629;48.808;8.820;2023-02-28T04:05:02;7.60;;;3.35;;
70967;SDS011;58629;48.808;8.820;2023-02-28T04:07:31;6.53;;;3.43;;
70967;SDS011;58629;48.808;8.820;2023-02-28T04:09:56;7.13;;;3.55;;
70967;SDS011;58629;48.808;8.820;2023-02-28T04:12:22;7.43;;;3.30;;
70967;SDS011;58629;48.808;8.820;2023-02-28T04:14:48;7.10;;;3.70;;
70967;SDS011;58629;48.808;8.820;2023-02-28T04:17:14;7.35;;;3.25;;
70967;SDS011;58629;48.808;8.820;2023-02-28T04:19:39;6.13;;;3.30;;
70967;SDS011;58629;48.808;8.820;2023-02-28T04:22:04;6.33;;;3.20;;
70967;SDS011;58629;48.808;8.820;2023-02-28T04:24:30;6.70;;;3.33;;
70967;SDS011;58629;48.808;8.820;2023-02-28T04:26:56;8.47;;;3.90;;
70967;SDS011;58629;48.808;8.820;2023-02-28T04:29:23;6.65;;;3.38;;
70967;SDS011;58629;48.808;8.820;2023-02-28T04:31:50;6.43;;;3.35;;
70967;SDS011;58629;48.808;8.820;2023-02-28T04:34:18;7.93;;;3.90;;
70967;SDS011;58629;48.808;8.820;2023-02-28T04:36:43;7.97;;;3.53;;
70967;SDS011;58629;48.808;8.820;2023-02-28T04:39:10;7.50;;;3.60;;
70967;SDS011;58629;48.808;8.820;2023-02-28T04:41:36;9.10;;;4.83;;
70967;SDS011;58629;48.808;8.820;2023-02-28T04:44:01;7.83;;;4.30;;
70967;SDS011;58629;48.808;8.820;2023-02-28T04:46:27;8.20;;;4.47;;
70967;SDS011;58629;48.808;8.820;2023-02-28T04:48:53;6.45;;;3.53;;
70967;SDS011;58629;48.808;8.820;2023-02-28T04:51:19;7.35;;;3.80;;
70967;SDS011;58629;48.808;8.820;2023-02-28T04:53:45;8.67;;;4.67;;
70967;SDS011;58629;48.808;8.820;2023-02-28T04:56:12;6.70;;;3.90;;
70967;SDS011;58629;48.808;8.820;2023-02-28T04:58:39;7.70;;;4.00;;
70967;SDS011;58629;48.808;8.820;2023-02-28T05:01:16;10.43;;;4.27;;
70967;SDS011;58629;48.808;8.820;2023-02-28T05:03:44;6.25;;;3.38;;
70967;SDS011;58629;48.808;8.820;2023-02-28T05:06:10;8.43;;;4.17;;
70967;SDS011;58629;48.808;8.820;2023-02-28T05:08:36;7.03;;;3.72;;
70967;SDS011;58629;48.808;8.820;2023-02-28T05:11:02;7.63;;;3.90;;
70967;SDS011;58629;48.808;8.820;2023-02-28T05:13:28;6.37;;;3.50;;
70967;SDS011;58629;48.808;8.820;2023-02-28T05:15:54;6.65;;;3.50;;
70967;SDS011;58629;48.808;8.820;2023-02-28T05:18:20;6.40;;;3.30;;
70967;SDS011;58629;48.808;8.820;2023-02-28T05:20:45;7.78;;;3.80;;
70967;SDS011;58629;48.808;8.820;2023-02-28T05:23:11;7.13;;;3.77;;
70967;SDS011;58629;48.808;8.820;2023-02-28T05:25:39;8.63;;;4.00;;
70967;SDS011;58629;48.808;8.820;2023-02-28T05:28:04;9.40;;;4.57;;
70967;SDS011;58629;48.808;8.820;2023-02-28T05:30:30;6.22;;;3.38;;
70967;SDS011;58629;48.808;8.820;2023-02-28T05:32:56;6.43;;;3.45;;
70967;SDS011;58629;48.808;8.820;2023-02-28T05:35:23;8.07;;;4.03;;
70967;SDS011;58629;48.808;8.820;2023-02-28T05:37:49;8.50;;;3.92;;
70967;SDS011;58629;48.808;8.820;2023-02-28T05:40:14;7.17;;;4.10;;
70967;SDS011;58629;48.808;8.820;2023-02-28T05:42:40;7.88;;;4.15;;
70967;SDS011;58629;48.808;8.820;2023-02-28T05:45:06;6.88;;;3.40;;
70967;SDS011;58629;48.808;8.820;2023-02-28T05:47:33;6.97;;;3.97;;
70967;SDS011;58629;48.808;8.820;2023-02-28T05:49:58;7.53;;;3.60;;
70967;SDS011;58629;48.808;8.820;2023-02-28T05:52:23;9.27;;;3.73;;
70967;SDS011;58629;48.808;8.820;2023-02-28T05:54:49;6.90;;;3.60;;
70967;SDS011;58629;48.808;8.820;2023-02-28T05:57:14;9.23;;;3.90;;
70967;SDS011;58629;48.808;8.820;2023-02-28T05:59:39;7.10;;;3.40;;
70967;SDS011;58629;48.808;8.820;2023-02-28T06:02:12;8.20;;;3.80;;
70967;SDS011;58629;48.808;8.820;2023-02-28T06:04:38;7.70;;;3.97;;
70967;SDS011;58629;48.808;8.820;2023-02-28T06:07:05;7.60;;;3.83;;
70967;SDS011;58629;48.808;8.820;2023-02-28T06:09:31;9.10;;;4.60;;
70967;SDS011;58629;48.808;8.820;2023-02-28T06:11:57;6.60;;;3.73;;
70967;SDS011;58629;48.808;8.820;2023-02-28T06:14:28;7.43;;;4.20;;
70967;SDS011;58629;48.808;8.820;2023-02-28T06:16:56;9.73;;;4.37;;
70967;SDS011;58629;48.808;8.820;2023-02-28T06:19:21;8.38;;;4.85;;
70967;SDS011;58629;48.808;8.820;2023-02-28T06:21:48;7.37;;;3.77;;
70967;SDS011;58629;48.808;8.820;2023-02-28T06:24:15;11.93;;;7.18;;
70967;SDS011;58629;48.808;8.820;2023-02-28T06:26:40;8.53;;;4.33;;
70967;SDS011;58629;48.808;8.820;2023-02-28T06:29:06;8.93;;;4.17;;
70967;SDS011;58629;48.808;8.820;2023-02-28T06:31:32;7.43;;;4.25;;
70967;SDS011;58629;48.808;8.820;2023-02-28T06:33:57;7.40;;;4.17;;
70967;SDS011;58629;48.808;8.820;2023-02-28T06:36:22;6.03;;;3.60;;
70967;SDS011;58629;48.808;8.820;2023-02-28T06:38:48;8.33;;;4.20;;
70967;SDS011;58629;48.808;8.820;2023-02-28T06:41:19;8.65;;;4.70;;
70967;SDS011;58629;48.808;8.820;2023-02-28T06:43:45;23.58;;;17.08;;
70967;SDS011;58629;48.808;8.820;2023-02-28T06:46:11;11.97;;;7.33;;
70967;SDS011;58629;48.808;8.820;2023-02-28T06:48:38;9.18;;;4.82;;
70967;SDS011;58629;48.808;8.820;2023-02-28T06:51:05;8.97;;;4.80;;
70967;SDS011;58629;48.808;8.820;2023-02-28T06:53:32;9.60;;;5.30;;
70967;SDS011;58629;48.808;8.820;2023-02-28T06:55:58;8.93;;;5.03;;
70967;SDS011;58629;48.808;8.820;2023-02-28T06:58:23;8.93;;;5.60;;
70967;SDS011;58629;48.808;8.820;2023-02-28T07:00:50;11.13;;;5.20;;
70967;SDS011;58629;48.808;8.820;2023-02-28T07:03:17;10.47;;;5.63;;
70967;SDS011;58629;48.808;8.820;2023-02-28T07:05:43;10.52;;;5.10;;
70967;SDS011;58629;48.808;8.820;2023-02-28T07:08:08;10.40;;;5.57;;
70967;SDS011;58629;48.808;8.820;2023-02-28T07:10:34;11.30;;;4.97;;
70967;SDS011;58629;48.808;8.820;2023-02-28T07:13:02;11.18;;;6.18;;
70967;SDS011;58629;48.808;8.820;2023-02-28T07:15:29;9.45;;;4.70;;
70967;SDS011;58629;48.808;8.820;2023-02-28T07:17:54;8.47;;;4.67;;
70967;SDS011;58629;48.808;8.820;2023-02-28T07:20:19;8.70;;;4.53;;
70967;SDS011;58629;48.808;8.820;2023-02-28T07:22:44;8.00;;;4.40;;
70967;SDS011;58629;48.808;8.820;2023-02-28T07:25:10;10.23;;;4.63;;
70967;SDS011;58629;48.808;8.820;2023-02-28T07:27:35;9.27;;;5.00;;
70967;SDS011;58629;48.808;8.820;2023-02-28T07:30:00;9.73;;;4.67;;
70967;SDS011;58629;48.808;8.820;2023-02-28T07:32:27;11.25;;;4.85;;
70967;SDS011;58629;48.808;8.820;2023-02-28T07:34:53;7.30;;;4.20;;
70967;SDS011;58629;48.808;8.820;2023-02-28T07:37:18;13.38;;;7.68;;
70967;SDS011;58629;48.808;8.820;2023-02-28T07:39:44;11.52;;;6.28;;
70967;SDS011;58629;48.808;8.820;2023-02-28T07:42:09;10.70;;;5.67;;
70967;SDS011;58629;48.808;8.820;2023-02-28T07:44:37;14.10;;;6.65;;
70967;SDS011;58629;48.808;8.820;2023-02-28T07:47:06;9.43;;;5.22;;
70967;SDS011;58629;48.808;8.820;2023-02-28T07:49:32;12.97;;;7.60;;
70967;SDS011;58629;48.808;8.820;2023-02-28T07:51:58;11.30;;;5.70;;
70967;SDS011;58629;48.808;8.820;2023-02-28T07:54:23;11.37;;;5.90;;
70967;SDS011;58629;48.808;8.820;2023-02-28T07:56:48;13.43;;;7.20;;
70967;SDS011;58629;48.808;8.820;2023-02-28T07:59:14;10.80;;;5.80;;
70967;SDS011;58629;48.808;8.820;2023-02-28T08:01:39;10.37;;;5.00;;
70967;SDS011;58629;48.808;8.820;2023-02-28T08:04:04;9.20;;;4.53;;
70967;SDS011;58629;48.808;8.820;2023-02-28T08:06:30;9.83;;;4.93;;
70967;SDS011;58629;48.808;8.820;2023-02-28T08:08:55;9.23;;;4.67;;
70967;SDS011;58629;48.808;8.820;2023-02-28T08:11:21;11.23;;;5.25;;
70967;SDS011;58629;48.808;8.820;2023-02-28T08:13:46;12.23;;;5.93;;
70967;SDS011;58629;48.808;8.820;2023-02-28T08:16:12;10.97;;;5.93;;
70967;SDS011;58629;48.808;8.820;2023-02-28T08:18:46;10.63;;;5.90;;
70967;SDS011;58629;48.808;8.820;2023-02-28T08:21:12;11.53;;;5.43;;
70967;SDS011;58629;48.808;8.820;2023-02-28T08:23:37;9.57;;;4.73;;
70967;SDS011;58629;48.808;8.820;2023-02-28T08:26:03;9.20;;;4.73;;
70967;SDS011;58629;48.808;8.820;2023-02-28T08:28:29;12.07;;;5.18;;
70967;SDS011;58629;48.808;8.820;2023-02-28T08:30:54;11.47;;;5.30;;
70967;SDS011;58629;48.808;8.820;2023-02-28T08:33:20;12.05;;;5.63;;
70967;SDS011;58629;48.808;8.820;2023-02-28T08:35:45;11.27;;;5.67;;
70967;SDS011;58629;48.808;8.820;2023-02-28T08:38:10;12.80;;;6.43;;
70967;SDS011;58629;48.808;8.820;2023-02-28T08:40:35;9.67;;;5.53;;
70967;SDS011;58629;48.808;8.820;2023-02-28T08:43:01;12.50;;;6.67;;
70967;SDS011;58629;48.808;8.820;2023-02-28T08:45:26;11.37;;;5.80;;
70967;SDS011;58629;48.808;8.820;2023-02-28T08:47:51;11.37;;;6.40;;
70967;SDS011;58629;48.808;8.820;2023-02-28T08:50:18;11.15;;;6.00;;
70967;SDS011;58629;48.808;8.820;2023-02-28T08:52:44;11.90;;;5.87;;
70967;SDS011;58629;48.808;8.820;2023-02-28T08:55:09;15.20;;;8.50;;
70967;SDS011;58629;48.808;8.820;2023-02-28T08:57:35;13.07;;;7.00;;
70967;SDS011;58629;48.808;8.820;2023-02-28T09:00:00;11.23;;;6.07;;
70967;SDS011;58629;48.808;8.820;2023-02-28T09:02:29;12.85;;;6.65;;
70967;SDS011;58629;48.808;8.820;2023-02-28T09:04:57;10.73;;;5.57;;
70967;SDS011;58629;48.808;8.820;2023-02-28T09:07:23;11.90;;;5.97;;
70967;SDS011;58629;48.808;8.820;2023-02-28T09:09:49;15.02;;;9.30;;
70967;SDS011;58629;48.808;8.820;2023-02-28T09:12:26;14.25;;;7.15;;
70967;SDS011;58629;48.808;8.820;2023-02-28T09:14:56;13.73;;;7.40;;
70967;SDS011;58629;48.808;8.820;2023-02-28T09:17:22;12.80;;;7.43;;
70967;SDS011;58629;48.808;8.820;2023-02-28T09:19:47;12.87;;;6.90;;
70967;SDS011;58629;48.808;8.820;2023-02-28T09:22:14;12.23;;;6.50;;
70967;SDS011;58629;48.808;8.820;2023-02-28T09:24:39;13.23;;;5.93;;
70967;SDS011;58629;48.808;8.820;2023-02-28T09:27:05;12.20;;;6.43;;
70967;SDS011;58629;48.808;8.820;2023-02-28T09:29:31;12.00;;;5.95;;
70967;SDS011;58629;48.808;8.820;2023-02-28T09:31:58;13.57;;;6.20;;
70967;SDS011;58629;48.808;8.820;2023-02-28T09:34:24;11.40;;;5.35;;
70967;SDS011;58629;48.808;8.820;2023-02-28T09:36:51;14.13;;;6.45;;
70967;SDS011;58629;48.808;8.820;2023-02-28T09:39:20;14.03;;;6.60;;
70967;SDS011;58629;48.808;8.820;2023-02-28T09:41:52;11.70;;;6.07;;
70967;SDS011;58629;48.808;8.820;2023-02-28T09:46:59;10.00;;;5.00;;
70967;SDS011;58629;48.808;8.820;2023-02-28T09:49:36;11.32;;;5.50;;
70967;SDS011;58629;48.808;8.820;2023-02-28T09:52:10;10.53;;;5.27;;
70967;SDS011;58629;48.808;8.820;2023-02-28T09:54:38;13.88;;;6.50;;
70967;SDS011;58629;48.808;8.820;2023-02-28T09:57:11;11.85;;;5.75;;
70967;SDS011;58629;48.808;8.820;2023-02-28T09:59:44;14.13;;;6.60;;
70967;SDS011;58629;48.808;8.820;2023-02-28T10:05:13;12.57;;;6.13;;
70967;SDS011;58629;48.808;8.820;2023-02-28T10:10:15;12.73;;;5.97;;
70967;SDS011;58629;48.808;8.820;2023-02-28T10:13:10;11.57;;;5.95;;
70967;SDS011;58629;48.808;8.820;2023-02-28T10:15:37;13.98;;;6.10;;
70967;SDS011;58629;48.808;8.820;2023-02-28T10:18:04;11.67;;;5.90;;
70967;SDS011;58629;48.808;8.820;2023-02-28T10:20:37;13.32;;;6.32;;
70967;SDS011;58629;48.808;8.820;2023-02-28T10:23:09;11.15;;;5.88;;
70967;SDS011;58629;48.808;8.820;2023-02-28T10:26:01;13.48;;;6.22;;
70967;SDS011;58629;48.808;8.820;2023-02-28T10:28:36;12.52;;;6.07;;
70967;SDS011;58629;48.808;8.820;2023-02-28T10:31:01;13.00;;;6.47;;
70967;SDS011;58629;48.808;8.820;2023-02-28T10:33:31;12.50;;;6.53;;
70967;SDS011;58629;48.808;8.820;2023-02-28T10:35:59;13.37;;;6.20;;
70967;SDS011;58629;48.808;8.820;2023-02-28T10:38:32;14.40;;;7.13;;
70967;SDS011;58629;48.808;8.820;2023-02-28T10:41:42;13.65;;;6.82;;
70967;SDS011;58629;48.808;8.820;2023-02-28T10:43:52;14.60;;;7.10;;
70967;SDS011;58629;48.808;8.820;2023-02-28T10:46:18;13.50;;;6.80;;
70967;SDS011;58629;48.808;8.820;2023-02-28T10:49:03;14.38;;;7.00;;
70967;SDS011;58629;48.808;8.820;2023-02-28T10:51:36;13.10;;;6.20;;
70967;SDS011;58629;48.808;8.820;2023-02-28T10:54:03;13.43;;;6.60;;
70967;SDS011;58629;48.808;8.820;2023-02-28T10:56:29;12.60;;;6.68;;
70967;SDS011;58629;48.808;8.820;2023-02-28T10:58:56;14.40;;;6.77;;
70967;SDS011;58629;48.808;8.820;2023-02-28T11:01:46;13.65;;;6.80;;
70967;SDS011;58629;48.808;8.820;2023-02-28T11:04:19;15.27;;;7.32;;
70967;SDS011;58629;48.808;8.820;2023-02-28T11:07:06;14.00;;;7.10;;
70967;SDS011;58629;48.808;8.820;2023-02-28T11:09:39;14.63;;;7.20;;
70967;SDS011;58629;48.808;8.820;2023-02-28T11:12:07;13.05;;;7.00;;
70967;SDS011;58629;48.808;8.820;2023-02-28T11:14:49;12.02;;;6.85;;
70967;SDS011;58629;48.808;8.820;2023-02-28T11:17:23;12.88;;;6.80;;
70967;SDS011;58629;48.808;8.820;2023-02-28T11:19:53;12.73;;;6.57;;
70967;SDS011;58629;48.808;8.820;2023-02-28T11:22:24;14.03;;;7.20;;
70967;SDS011;58629;48.808;8.820;2023-02-28T11:24:57;14.25;;;7.15;;
70967;SDS011;58629;48.808;8.820;2023-02-28T11:29:58;13.57;;;7.22;;
70967;SDS011;58629;48.808;8.820;2023-02-28T11:32:25;14.48;;;7.22;;
70967;SDS011;58629;48.808;8.820;2023-02-28T11:37:34;13.48;;;7.15;;
70967;SDS011;58629;48.808;8.820;2023-02-28T11:39:59;14.40;;;7.55;;
70967;SDS011;58629;48.808;8.820;2023-02-28T11:42:32;14.73;;;7.30;;
70967;SDS011;58629;48.808;8.820;2023-02-28T11:50:39;13.07;;;7.18;;
70967;SDS011;58629;48.808;8.820;2023-02-28T11:53:22;13.23;;;7.05;;
70967;SDS011;58629;48.808;8.820;2023-02-28T11:56:17;15.70;;;7.55;;
70967;SDS011;58629;48.808;8.820;2023-02-28T12:15:17;12.77;;;7.30;;
70967;SDS011;58629;48.808;8.820;2023-02-28T12:23:20;12.18;;;7.25;;
70967;SDS011;58629;48.808;8.820;2023-02-28T12:26:19;14.00;;;7.78;;
70967;SDS011;58629;48.808;8.820;2023-02-28T12:29:02;14.43;;;7.87;;
70967;SDS011;58629;48.808;8.820;2023-02-28T12:31:54;13.77;;;7.75;;
70967;SDS011;58629;48.808;8.820;2023-02-28T12:34:33;13.45;;;7.63;;
70967;SDS011;58629;48.808;8.820;2023-02-28T12:37:06;13.55;;;7.88;;
70967;SDS011;58629;48.808;8.820;2023-02-28T12:39:46;13.10;;;7.80;;
70967;SDS011;58629;48.808;8.820;2023-02-28T12:42:19;14.13;;;8.07;;
70967;SDS011;58629;48.808;8.820;2023-02-28T12:44:52;13.45;;;7.65;;
70967;SDS011;58629;48.808;8.820;2023-02-28T12:47:23;13.85;;;7.90;;
70967;SDS011;58629;48.808;8.820;2023-02-28T12:49:50;12.53;;;7.80;;
70967;SDS011;58629;48.808;8.820;2023-02-28T12:52:22;13.18;;;7.43;;
70967;SDS011;58629;48.808;8.820;2023-02-28T12:57:40;13.83;;;7.53;;
70967;SDS011;58629;48.808;8.820;2023-02-28T13:00:15;13.10;;;7.10;;
70967;SDS011;58629;48.808;8.820;2023-02-28T13:02:49;13.20;;;8.27;;
70967;SDS011;58629;48.808;8.820;2023-02-28T13:05:36;12.25;;;6.85;;
70967;SDS011;58629;48.808;8.820;2023-02-28T13:08:27;12.07;;;7.25;;
70967;SDS011;58629;48.808;8.820;2023-02-28T13:19:23;13.52;;;7.32;;
70967;SDS011;58629;48.808;8.820;2023-02-28T13:21:54;12.93;;;7.22;;
70967;SDS011;58629;48.808;8.820;2023-02-28T13:24:38;11.93;;;6.70;;
70967;SDS011;58629;48.808;8.820;2023-02-28T13:27:20;13.27;;;7.32;;
70967;SDS011;58629;48.808;8.820;2023-02-28T13:29:49;11.70;;;6.60;;
70967;SDS011;58629;48.808;8.820;2023-02-28T13:32:19;13.82;;;7.22;;
70967;SDS011;58629;48.808;8.820;2023-02-28T13:42:33;11.60;;;6.75;;
70967;SDS011;58629;48.808;8.820;2023-02-28T13:47:36;13.13;;;6.97;;
70967;SDS011;58629;48.808;8.820;2023-02-28T13:50:27;13.00;;;7.30;;
70967;SDS011;58629;48.808;8.820;2023-02-28T13:53:21;10.75;;;6.07;;
70967;SDS011;58629;48.808;8.820;2023-02-28T13:56:01;10.48;;;6.15;;
70967;SDS011;58629;48.808;8.820;2023-02-28T14:01:16;11.82;;;6.78;;
70967;SDS011;58629;48.808;8.820;2023-02-28T14:06:53;14.05;;;7.00;;
70967;SDS011;58629;48.808;8.820;2023-02-28T14:11:55;11.40;;;6.70;;
70967;SDS011;58629;48.808;8.820;2023-02-28T14:17:07;12.77;;;6.80;;
70967;SDS011;58629;48.808;8.820;2023-02-28T14:19:38;10.85;;;6.50;;
70967;SDS011;58629;48.808;8.820;2023-02-28T14:28:11;11.70;;;6.53;;
70967;SDS011;58629;48.808;8.820;2023-02-28T14:33:57;12.73;;;6.45;;
70967;SDS011;58629;48.808;8.820;2023-02-28T14:36:35;11.18;;;6.82;;
70967;SDS011;58629;48.808;8.820;2023-02-28T14:39:06;12.57;;;6.97;;
70967;SDS011;58629;48.808;8.820;2023-02-28T14:41:37;10.38;;;6.25;;
70967;SDS011;58629;48.808;8.820;2023-02-28T14:44:14;10.47;;;6.33;;
70967;SDS011;58629;48.808;8.820;2023-02-28T14:46:46;11.43;;;6.68;;
70967;SDS011;58629;48.808;8.820;2023-02-28T14:49:20;13.05;;;7.10;;
70967;SDS011;58629;48.808;8.820;2023-02-28T14:51:50;11.63;;;6.32;;
70967;SDS011;58629;48.808;8.820;2023-02-28T14:54:28;11.18;;;6.30;;
70967;SDS011;58629;48.808;8.820;2023-02-28T14:56:53;12.43;;;6.60;;
70967;SDS011;58629;48.808;8.820;2023-02-28T14:59:27;11.03;;;6.03;;
70967;SDS011;58629;48.808;8.820;2023-02-28T15:02:14;10.70;;;6.28;;
70967;SDS011;58629;48.808;8.820;2023-02-28T15:04:43;9.80;;;5.53;;
70967;SDS011;58629;48.808;8.820;2023-02-28T15:07:13;9.87;;;5.87;;
70967;SDS011;58629;48.808;8.820;2023-02-28T15:09:39;11.50;;;6.90;;
70967;SDS011;58629;48.808;8.820;2023-02-28T15:12:05;15.43;;;7.80;;
70967;SDS011;58629;48.808;8.820;2023-02-28T15:14:30;12.45;;;7.53;;
70967;SDS011;58629;48.808;8.820;2023-02-28T15:16:57;12.97;;;7.57;;
70967;SDS011;58629;48.808;8.820;2023-02-28T15:19:30;14.05;;;7.55;;
70967;SDS011;58629;48.808;8.820;2023-02-28T15:22:02;12.55;;;7.25;;
70967;SDS011;58629;48.808;8.820;2023-02-28T15:24:34;15.35;;;8.07;;
70967;SDS011;58629;48.808;8.820;2023-02-28T15:27:02;13.43;;;7.63;;
70967;SDS011;58629;48.808;8.820;2023-02-28T15:29:32;13.93;;;7.83;;
70967;SDS011;58629;48.808;8.820;2023-02-28T15:32:26;12.80;;;7.40;;
70967;SDS011;58629;48.808;8.820;2023-02-28T15:34:56;10.32;;;5.90;;
70967;SDS011;58629;48.808;8.820;2023-02-28T15:42:39;13.13;;;7.30;;
70967;SDS011;58629;48.808;8.820;2023-02-28T15:45:05;12.73;;;7.53;;
70967;SDS011;58629;48.808;8.820;2023-02-28T15:47:30;13.80;;;8.13;;
70967;SDS011;58629;48.808;8.820;2023-02-28T15:50:03;13.43;;;7.72;;
70967;SDS011;58629;48.808;8.820;2023-02-28T15:52:39;11.00;;;6.60;;
70967;SDS011;58629;48.808;8.820;2023-02-28T15:55:18;11.25;;;6.93;;
70967;SDS011;58629;48.808;8.820;2023-02-28T15:57:50;12.60;;;7.32;;
70967;SDS011;58629;48.808;8.820;2023-02-28T16:00:21;14.20;;;8.27;;
70967;SDS011;58629;48.808;8.820;2023-02-28T16:02:48;11.15;;;6.82;;
70967;SDS011;58629;48.808;8.820;2023-02-28T16:07:40;11.73;;;6.53;;
70967;SDS011;58629;48.808;8.820;2023-02-28T16:10:09;12.68;;;7.32;;
70967;SDS011;58629;48.808;8.820;2023-02-28T16:12:37;12.68;;;7.13;;
70967;SDS011;58629;48.808;8.820;2023-02-28T16:17:51;13.60;;;7.13;;
70967;SDS011;58629;48.808;8.820;2023-02-28T16:22:43;15.82;;;8.40;;
70967;SDS011;58629;48.808;8.820;2023-02-28T16:25:13;12.47;;;7.00;;
70967;SDS011;58629;48.808;8.820;2023-02-28T16:27:39;13.18;;;7.50;;
70967;SDS011;58629;48.808;8.820;2023-02-28T16:30:05;13.63;;;7.50;;
70967;SDS011;58629;48.808;8.820;2023-02-28T16:32:34;13.43;;;6.80;;
70967;SDS011;58629;48.808;8.820;2023-02-28T16:35:01;12.20;;;6.90;;
70967;SDS011;58629;48.808;8.820;2023-02-28T16:37:26;13.13;;;7.27;;
70967;SDS011;58629;48.808;8.820;2023-02-28T16:39:52;13.23;;;7.22;;
70967;SDS011;58629;48.808;8.820;2023-02-28T16:42:25;15.60;;;7.70;;
70967;SDS011;58629;48.808;8.820;2023-02-28T16:44:53;15.60;;;7.97;;
70967;SDS011;58629;48.808;8.820;2023-02-28T16:47:20;14.25;;;7.97;;
70967;SDS011;58629;48.808;8.820;2023-02-28T16:49:45;14.00;;;7.80;;
70967;SDS011;58629;48.808;8.820;2023-02-28T16:52:12;15.48;;;7.55;;
70967;SDS011;58629;48.808;8.820;2023-02-28T16:54:38;14.35;;;7.80;;
70967;SDS011;58629;48.808;8.820;2023-02-28T16:57:05;15.57;;;7.90;;
70967;SDS011;58629;48.808;8.820;2023-02-28T16:59:36;12.48;;;7.05;;
70967;SDS011;58629;48.808;8.820;2023-02-28T17:02:04;15.13;;;7.93;;